sensor_id;sensor_type;location;lat;lon;timestamp;temperature;humidity
39453;DHT22;25154;-33.684;151.102;2023-07-09T00:02:15;14.60;98.60
39453;DHT22;25154;-33.684;151.102;2023-07-09T00:07:33;14.60;97.90
39453;DHT22;25154;-33.684;151.102;2023-07-09T00:12:36;14.70;97.30
39453;DHT22;25154;-33.684;151.102;2023-07-09T00:17:39;14.80;97.10
39453;DHT22;25154;-33.684;151.102;2023-07-09T00:22:42;15.00;97.10
39453;DHT22;25154;-33.684;151.102;2023-07-09T00:27:49;15.00;96.80
39453;DHT22;25154;-33.684;151.102;2023-07-09T00:32:53;14.90;96.70
39453;DHT22;25154;-33.684;151.102;2023-07-09T00:37:57;14.80;97.40
39453;DHT22;25154;-33.684;151.102;2023-07-09T00:43:02;15.40;97.30
39453;DHT22;25154;-33.684;151.102;2023-07-09T00:48:14;15.60;96.40
39453;DHT22;25154;-33.684;151.102;2023-07-09T00:53:30;15.40;96.60
39453;DHT22;25154;-33.684;151.102;2023-07-09T00:58:35;15.60;96.10
39453;DHT22;25154;-33.684;151.102;2023-07-09T01:03:53;15.90;95.20
39453;DHT22;25154;-33.684;151.102;2023-07-09T01:14:14;15.60;95.80
39453;DHT22;25154;-33.684;151.102;2023-07-09T01:19:25;15.60;94.90
39453;DHT22;25154;-33.684;151.102;2023-07-09T01:24:56;16.10;95.90
39453;DHT22;25154;-33.684;151.102;2023-07-09T01:30:07;16.10;94.90
39453;DHT22;25154;-33.684;151.102;2023-07-09T01:35:10;16.10;93.80
39453;DHT22;25154;-33.684;151.102;2023-07-09T01:40:18;16.50;94.70
39453;DHT22;25154;-33.684;151.102;2023-07-09T01:45:21;16.50;93.60
39453;DHT22;25154;-33.684;151.102;2023-07-09T01:50:24;16.30;94.20
39453;DHT22;25154;-33.684;151.102;2023-07-09T01:55:29;16.50;94.20
39453;DHT22;25154;-33.684;151.102;2023-07-09T02:00:33;16.90;93.20
39453;DHT22;25154;-33.684;151.102;2023-07-09T02:05:38;16.80;92.70
39453;DHT22;25154;-33.684;151.102;2023-07-09T02:10:44;17.00;92.70
39453;DHT22;25154;-33.684;151.102;2023-07-09T02:15:47;17.10;91.60
39453;DHT22;25154;-33.684;151.102;2023-07-09T02:20:50;16.60;92.70
39453;DHT22;25154;-33.684;151.102;2023-07-09T02:25:53;16.90;91.50
39453;DHT22;25154;-33.684;151.102;2023-07-09T02:30:56;17.40;91.60
39453;DHT22;25154;-33.684;151.102;2023-07-09T02:35:59;17.00;91.50
39453;DHT22;25154;-33.684;151.102;2023-07-09T02:41:03;17.10;91.30
39453;DHT22;25154;-33.684;151.102;2023-07-09T02:46:05;17.30;91.20
39453;DHT22;25154;-33.684;151.102;2023-07-09T02:51:09;17.00;91.40
39453;DHT22;25154;-33.684;151.102;2023-07-09T02:56:12;17.20;91.20
39453;DHT22;25154;-33.684;151.102;2023-07-09T03:01:14;17.40;91.00
39453;DHT22;25154;-33.684;151.102;2023-07-09T03:06:16;17.50;90.40
39453;DHT22;25154;-33.684;151.102;2023-07-09T03:11:19;17.50;90.40
39453;DHT22;25154;-33.684;151.102;2023-07-09T03:16:22;17.30;90.30
39453;DHT22;25154;-33.684;151.102;2023-07-09T03:21:25;17.80;90.40
39453;DHT22;25154;-33.684;151.102;2023-07-09T03:26:28;17.40;90.20
39453;DHT22;25154;-33.684;151.102;2023-07-09T03:31:30;17.40;90.40
39453;DHT22;25154;-33.684;151.102;2023-07-09T03:36:36;17.60;90.70
39453;DHT22;25154;-33.684;151.102;2023-07-09T03:41:39;17.50;90.60
39453;DHT22;25154;-33.684;151.102;2023-07-09T03:46:42;17.90;90.80
39453;DHT22;25154;-33.684;151.102;2023-07-09T03:51:45;17.90;90.30
39453;DHT22;25154;-33.684;151.102;2023-07-09T03:56:47;17.60;90.30
39453;DHT22;25154;-33.684;151.102;2023-07-09T04:01:49;18.00;90.40
39453;DHT22;25154;-33.684;151.102;2023-07-09T04:06:52;18.10;90.10
39453;DHT22;25154;-33.684;151.102;2023-07-09T04:11:54;17.90;90.40
39453;DHT22;25154;-33.684;151.102;2023-07-09T04:16:56;17.60;90.40
39453;DHT22;25154;-33.684;151.102;2023-07-09T04:21:59;17.90;90.30
39453;DHT22;25154;-33.684;151.102;2023-07-09T04:27:01;18.90;90.10
39453;DHT22;25154;-33.684;151.102;2023-07-09T04:32:06;20.60;84.50
39453;DHT22;25154;-33.684;151.102;2023-07-09T04:37:10;20.50;85.00
39453;DHT22;25154;-33.684;151.102;2023-07-09T04:42:16;18.80;88.40
39453;DHT22;25154;-33.684;151.102;2023-07-09T04:47:19;18.40;89.10
39453;DHT22;25154;-33.684;151.102;2023-07-09T04:52:21;18.30;89.40
39453;DHT22;25154;-33.684;151.102;2023-07-09T04:57:24;18.40;89.80
39453;DHT22;25154;-33.684;151.102;2023-07-09T05:02:26;19.20;88.90
39453;DHT22;25154;-33.684;151.102;2023-07-09T05:07:29;20.60;84.40
39453;DHT22;25154;-33.684;151.102;2023-07-09T05:12:32;22.40;81.40
39453;DHT22;25154;-33.684;151.102;2023-07-09T05:17:34;22.90;79.00
39453;DHT22;25154;-33.684;151.102;2023-07-09T05:22:37;24.20;76.70
39453;DHT22;25154;-33.684;151.102;2023-07-09T05:27:39;23.70;75.50
39453;DHT22;25154;-33.684;151.102;2023-07-09T05:32:41;23.70;76.40
39453;DHT22;25154;-33.684;151.102;2023-07-09T05:37:46;22.20;78.00
39453;DHT22;25154;-33.684;151.102;2023-07-09T05:42:49;21.80;78.50
39453;DHT22;25154;-33.684;151.102;2023-07-09T05:47:51;22.60;77.30
39453;DHT22;25154;-33.684;151.102;2023-07-09T05:52:54;23.30;76.10
39453;DHT22;25154;-33.684;151.102;2023-07-09T05:57:57;21.40;78.00
39453;DHT22;25154;-33.684;151.102;2023-07-09T06:03:00;19.20;83.60
39453;DHT22;25154;-33.684;151.102;2023-07-09T06:08:04;17.30;89.70
39453;DHT22;25154;-33.684;151.102;2023-07-09T06:13:07;16.70;90.90
39453;DHT22;25154;-33.684;151.102;2023-07-09T06:18:10;16.40;91.60
39453;DHT22;25154;-33.684;151.102;2023-07-09T06:23:12;16.30;92.20
39453;DHT22;25154;-33.684;151.102;2023-07-09T06:28:21;16.70;92.10
39453;DHT22;25154;-33.684;151.102;2023-07-09T06:33:26;16.30;92.20
39453;DHT22;25154;-33.684;151.102;2023-07-09T06:38:29;15.60;94.10
39453;DHT22;25154;-33.684;151.102;2023-07-09T06:43:32;15.30;95.50
39453;DHT22;25154;-33.684;151.102;2023-07-09T06:48:34;15.10;95.60
39453;DHT22;25154;-33.684;151.102;2023-07-09T06:53:37;15.00;96.10
39453;DHT22;25154;-33.684;151.102;2023-07-09T06:58:41;14.90;96.50
39453;DHT22;25154;-33.684;151.102;2023-07-09T07:03:44;14.70;97.30
39453;DHT22;25154;-33.684;151.102;2023-07-09T07:08:47;14.50;97.70
39453;DHT22;25154;-33.684;151.102;2023-07-09T07:13:49;14.40;98.60
39453;DHT22;25154;-33.684;151.102;2023-07-09T07:18:55;14.40;98.70
39453;DHT22;25154;-33.684;151.102;2023-07-09T07:23:57;14.20;99.60
39453;DHT22;25154;-33.684;151.102;2023-07-09T07:28:59;14.10;99.90
39453;DHT22;25154;-33.684;151.102;2023-07-09T07:34:01;14.00;99.90
39453;DHT22;25154;-33.684;151.102;2023-07-09T07:39:04;13.80;99.90
39453;DHT22;25154;-33.684;151.102;2023-07-09T07:44:06;13.60;99.90
39453;DHT22;25154;-33.684;151.102;2023-07-09T07:49:09;13.30;99.90
39453;DHT22;25154;-33.684;151.102;2023-07-09T07:54:11;13.30;99.90
39453;DHT22;25154;-33.684;151.102;2023-07-09T07:59:14;13.30;99.90
39453;DHT22;25154;-33.684;151.102;2023-07-09T08:04:18;13.30;99.90
39453;DHT22;25154;-33.684;151.102;2023-07-09T08:09:21;13.30;99.90
39453;DHT22;25154;-33.684;151.102;2023-07-09T08:14:24;13.10;99.90
39453;DHT22;25154;-33.684;151.102;2023-07-09T08:19:26;12.90;99.90
39453;DHT22;25154;-33.684;151.102;2023-07-09T08:24:29;12.80;99.90
39453;DHT22;25154;-33.684;151.102;2023-07-09T08:29:32;12.90;99.90
39453;DHT22;25154;-33.684;151.102;2023-07-09T08:34:34;12.80;99.90
39453;DHT22;25154;-33.684;151.102;2023-07-09T08:39:37;12.70;99.90
39453;DHT22;25154;-33.684;151.102;2023-07-09T08:45:03;12.50;99.90
39453;DHT22;25154;-33.684;151.102;2023-07-09T08:50:17;12.30;99.90
39453;DHT22;25154;-33.684;151.102;2023-07-09T08:55:25;12.30;99.90
39453;DHT22;25154;-33.684;151.102;2023-07-09T09:05:47;12.10;99.90
39453;DHT22;25154;-33.684;151.102;2023-07-09T09:16:37;11.90;99.90
39453;DHT22;25154;-33.684;151.102;2023-07-09T09:21:42;12.10;99.90
39453;DHT22;25154;-33.684;151.102;2023-07-09T09:26:45;12.20;99.90
39453;DHT22;25154;-33.684;151.102;2023-07-09T09:31:58;12.30;99.90
39453;DHT22;25154;-33.684;151.102;2023-07-09T09:37:09;12.40;99.90
39453;DHT22;25154;-33.684;151.102;2023-07-09T09:42:13;12.40;99.90
39453;DHT22;25154;-33.684;151.102;2023-07-09T09:47:15;12.00;99.90
39453;DHT22;25154;-33.684;151.102;2023-07-09T09:52:19;11.80;99.90
39453;DHT22;25154;-33.684;151.102;2023-07-09T09:57:23;11.70;99.90
39453;DHT22;25154;-33.684;151.102;2023-07-09T10:02:26;11.50;99.90
39453;DHT22;25154;-33.684;151.102;2023-07-09T10:07:37;11.50;99.90
39453;DHT22;25154;-33.684;151.102;2023-07-09T10:18:32;11.80;99.90
39453;DHT22;25154;-33.684;151.102;2023-07-09T10:29:38;11.70;99.90
39453;DHT22;25154;-33.684;151.102;2023-07-09T10:35:01;11.50;99.90
39453;DHT22;25154;-33.684;151.102;2023-07-09T10:40:10;11.30;99.90
39453;DHT22;25154;-33.684;151.102;2023-07-09T10:45:42;11.10;99.90
39453;DHT22;25154;-33.684;151.102;2023-07-09T10:50:52;11.10;99.90
39453;DHT22;25154;-33.684;151.102;2023-07-09T10:56:00;10.70;99.90
39453;DHT22;25154;-33.684;151.102;2023-07-09T11:01:04;10.70;99.90
39453;DHT22;25154;-33.684;151.102;2023-07-09T11:06:20;11.20;99.90
39453;DHT22;25154;-33.684;151.102;2023-07-09T11:11:43;11.20;99.90
39453;DHT22;25154;-33.684;151.102;2023-07-09T11:16:47;11.20;99.90
39453;DHT22;25154;-33.684;151.102;2023-07-09T11:22:03;10.90;99.90
39453;DHT22;25154;-33.684;151.102;2023-07-09T11:27:18;11.30;99.90
39453;DHT22;25154;-33.684;151.102;2023-07-09T11:32:22;11.40;99.90
39453;DHT22;25154;-33.684;151.102;2023-07-09T11:42:51;11.60;99.90
39453;DHT22;25154;-33.684;151.102;2023-07-09T11:48:18;11.30;99.90
39453;DHT22;25154;-33.684;151.102;2023-07-09T11:53:36;11.00;99.90
39453;DHT22;25154;-33.684;151.102;2023-07-09T11:58:54;10.00;99.90
39453;DHT22;25154;-33.684;151.102;2023-07-09T12:03:57;10.10;99.90
39453;DHT22;25154;-33.684;151.102;2023-07-09T12:09:00;10.20;99.90
39453;DHT22;25154;-33.684;151.102;2023-07-09T12:14:14;9.90;99.90
39453;DHT22;25154;-33.684;151.102;2023-07-09T12:19:19;10.10;99.90
39453;DHT22;25154;-33.684;151.102;2023-07-09T12:24:28;10.00;99.90
39453;DHT22;25154;-33.684;151.102;2023-07-09T12:29:35;9.90;99.90
39453;DHT22;25154;-33.684;151.102;2023-07-09T12:34:39;9.60;99.90
39453;DHT22;25154;-33.684;151.102;2023-07-09T12:39:43;9.30;99.90
39453;DHT22;25154;-33.684;151.102;2023-07-09T12:44:46;9.70;99.90
39453;DHT22;25154;-33.684;151.102;2023-07-09T12:49:50;10.10;99.90
39453;DHT22;25154;-33.684;151.102;2023-07-09T12:55:02;10.00;99.90
39453;DHT22;25154;-33.684;151.102;2023-07-09T13:00:18;9.60;99.90
39453;DHT22;25154;-33.684;151.102;2023-07-09T13:05:23;9.90;99.90
39453;DHT22;25154;-33.684;151.102;2023-07-09T13:10:32;9.70;99.90
39453;DHT22;25154;-33.684;151.102;2023-07-09T13:15:49;9.50;99.90
39453;DHT22;25154;-33.684;151.102;2023-07-09T13:20:57;9.20;99.90
39453;DHT22;25154;-33.684;151.102;2023-07-09T13:26:00;9.30;99.90
39453;DHT22;25154;-33.684;151.102;2023-07-09T13:31:23;8.80;99.90
39453;DHT22;25154;-33.684;151.102;2023-07-09T13:36:25;8.60;99.90
39453;DHT22;25154;-33.684;151.102;2023-07-09T13:41:28;8.20;99.90
39453;DHT22;25154;-33.684;151.102;2023-07-09T13:46:30;8.10;99.90
39453;DHT22;25154;-33.684;151.102;2023-07-09T13:51:33;8.30;99.90
39453;DHT22;25154;-33.684;151.102;2023-07-09T13:56:35;8.30;99.90
39453;DHT22;25154;-33.684;151.102;2023-07-09T14:01:38;8.00;99.90
39453;DHT22;25154;-33.684;151.102;2023-07-09T14:06:41;7.70;99.90
39453;DHT22;25154;-33.684;151.102;2023-07-09T14:11:49;7.90;99.90
39453;DHT22;25154;-33.684;151.102;2023-07-09T14:16:52;7.70;99.90
39453;DHT22;25154;-33.684;151.102;2023-07-09T14:21:55;7.90;99.90
39453;DHT22;25154;-33.684;151.102;2023-07-09T14:27:00;7.50;99.90
39453;DHT22;25154;-33.684;151.102;2023-07-09T14:32:03;7.40;99.90
39453;DHT22;25154;-33.684;151.102;2023-07-09T14:37:08;7.10;99.90
39453;DHT22;25154;-33.684;151.102;2023-07-09T14:42:13;7.50;99.90
39453;DHT22;25154;-33.684;151.102;2023-07-09T14:47:21;7.20;99.90
39453;DHT22;25154;-33.684;151.102;2023-07-09T14:52:23;7.00;99.90
39453;DHT22;25154;-33.684;151.102;2023-07-09T14:57:26;7.50;99.90
39453;DHT22;25154;-33.684;151.102;2023-07-09T15:02:39;7.60;99.90
39453;DHT22;25154;-33.684;151.102;2023-07-09T15:07:42;7.00;99.90
39453;DHT22;25154;-33.684;151.102;2023-07-09T15:12:46;7.30;99.90
39453;DHT22;25154;-33.684;151.102;2023-07-09T15:17:49;7.50;99.90
39453;DHT22;25154;-33.684;151.102;2023-07-09T15:22:52;7.10;99.90
39453;DHT22;25154;-33.684;151.102;2023-07-09T15:27:55;7.30;99.90
39453;DHT22;25154;-33.684;151.102;2023-07-09T15:32:59;7.30;99.90
39453;DHT22;25154;-33.684;151.102;2023-07-09T15:38:25;7.30;99.90
39453;DHT22;25154;-33.684;151.102;2023-07-09T15:43:29;6.80;99.90
39453;DHT22;25154;-33.684;151.102;2023-07-09T15:48:34;7.00;99.90
39453;DHT22;25154;-33.684;151.102;2023-07-09T15:53:37;7.50;99.90
39453;DHT22;25154;-33.684;151.102;2023-07-09T15:58:44;7.20;99.90
39453;DHT22;25154;-33.684;151.102;2023-07-09T16:03:53;7.30;99.90
39453;DHT22;25154;-33.684;151.102;2023-07-09T16:08:56;7.10;99.90
39453;DHT22;25154;-33.684;151.102;2023-07-09T16:13:58;7.00;99.90
39453;DHT22;25154;-33.684;151.102;2023-07-09T16:19:01;7.10;99.90
39453;DHT22;25154;-33.684;151.102;2023-07-09T16:24:14;6.70;99.90
39453;DHT22;25154;-33.684;151.102;2023-07-09T16:29:23;7.00;99.90
39453;DHT22;25154;-33.684;151.102;2023-07-09T16:34:26;6.80;99.90
39453;DHT22;25154;-33.684;151.102;2023-07-09T16:39:36;6.80;99.90
39453;DHT22;25154;-33.684;151.102;2023-07-09T16:44:41;6.80;99.90
39453;DHT22;25154;-33.684;151.102;2023-07-09T16:49:43;6.60;99.90
39453;DHT22;25154;-33.684;151.102;2023-07-09T16:54:46;6.70;99.90
39453;DHT22;25154;-33.684;151.102;2023-07-09T16:59:49;6.30;99.90
39453;DHT22;25154;-33.684;151.102;2023-07-09T17:04:53;5.90;99.90
39453;DHT22;25154;-33.684;151.102;2023-07-09T17:09:55;5.90;99.90
39453;DHT22;25154;-33.684;151.102;2023-07-09T17:15:00;6.40;99.90
39453;DHT22;25154;-33.684;151.102;2023-07-09T17:20:02;6.10;99.90
39453;DHT22;25154;-33.684;151.102;2023-07-09T17:25:23;6.10;99.90
39453;DHT22;25154;-33.684;151.102;2023-07-09T17:30:28;6.30;99.90
39453;DHT22;25154;-33.684;151.102;2023-07-09T17:35:31;6.20;99.90
39453;DHT22;25154;-33.684;151.102;2023-07-09T17:40:35;5.80;99.90
39453;DHT22;25154;-33.684;151.102;2023-07-09T17:45:38;6.10;99.90
39453;DHT22;25154;-33.684;151.102;2023-07-09T17:50:40;5.90;99.90
39453;DHT22;25154;-33.684;151.102;2023-07-09T17:55:42;6.00;99.90
39453;DHT22;25154;-33.684;151.102;2023-07-09T18:00:45;5.70;99.90
39453;DHT22;25154;-33.684;151.102;2023-07-09T18:05:47;5.50;99.90
39453;DHT22;25154;-33.684;151.102;2023-07-09T18:10:50;5.30;99.90
39453;DHT22;25154;-33.684;151.102;2023-07-09T18:16:04;5.50;99.90
39453;DHT22;25154;-33.684;151.102;2023-07-09T18:21:11;5.50;99.90
39453;DHT22;25154;-33.684;151.102;2023-07-09T18:26:15;6.00;99.90
39453;DHT22;25154;-33.684;151.102;2023-07-09T18:31:18;5.30;99.90
39453;DHT22;25154;-33.684;151.102;2023-07-09T18:36:20;5.40;99.90
39453;DHT22;25154;-33.684;151.102;2023-07-09T18:41:22;5.50;99.90
39453;DHT22;25154;-33.684;151.102;2023-07-09T18:46:25;5.60;99.90
39453;DHT22;25154;-33.684;151.102;2023-07-09T18:51:27;5.50;99.90
39453;DHT22;25154;-33.684;151.102;2023-07-09T18:56:30;5.00;99.90
39453;DHT22;25154;-33.684;151.102;2023-07-09T19:01:33;5.70;99.90
39453;DHT22;25154;-33.684;151.102;2023-07-09T19:06:35;5.00;99.90
39453;DHT22;25154;-33.684;151.102;2023-07-09T19:11:37;4.90;99.90
39453;DHT22;25154;-33.684;151.102;2023-07-09T19:16:40;5.20;99.90
39453;DHT22;25154;-33.684;151.102;2023-07-09T19:21:42;4.70;99.90
39453;DHT22;25154;-33.684;151.102;2023-07-09T19:26:45;4.80;99.90
39453;DHT22;25154;-33.684;151.102;2023-07-09T19:31:54;5.20;99.90
39453;DHT22;25154;-33.684;151.102;2023-07-09T19:37:02;4.60;99.90
39453;DHT22;25154;-33.684;151.102;2023-07-09T19:42:23;4.50;99.90
39453;DHT22;25154;-33.684;151.102;2023-07-09T19:47:31;4.90;99.90
39453;DHT22;25154;-33.684;151.102;2023-07-09T19:52:34;4.60;99.90
39453;DHT22;25154;-33.684;151.102;2023-07-09T19:57:36;4.70;99.90
39453;DHT22;25154;-33.684;151.102;2023-07-09T20:02:39;4.80;99.90
39453;DHT22;25154;-33.684;151.102;2023-07-09T20:07:44;4.60;99.90
39453;DHT22;25154;-33.684;151.102;2023-07-09T20:12:50;4.90;99.90
39453;DHT22;25154;-33.684;151.102;2023-07-09T20:17:57;5.30;99.90
39453;DHT22;25154;-33.684;151.102;2023-07-09T20:23:00;4.50;99.90
39453;DHT22;25154;-33.684;151.102;2023-07-09T20:33:16;4.80;99.90
39453;DHT22;25154;-33.684;151.102;2023-07-09T20:38:21;5.20;99.90
39453;DHT22;25154;-33.684;151.102;2023-07-09T20:43:36;4.80;99.90
39453;DHT22;25154;-33.684;151.102;2023-07-09T20:48:40;4.30;99.90
39453;DHT22;25154;-33.684;151.102;2023-07-09T20:53:42;4.40;99.90
39453;DHT22;25154;-33.684;151.102;2023-07-09T20:58:44;4.50;99.90
39453;DHT22;25154;-33.684;151.102;2023-07-09T21:03:47;4.10;99.90
39453;DHT22;25154;-33.684;151.102;2023-07-09T21:08:49;4.00;99.90
39453;DHT22;25154;-33.684;151.102;2023-07-09T21:13:52;4.50;99.90
39453;DHT22;25154;-33.684;151.102;2023-07-09T21:18:54;4.40;99.90
39453;DHT22;25154;-33.684;151.102;2023-07-09T21:23:57;4.00;99.90
39453;DHT22;25154;-33.684;151.102;2023-07-09T21:28:59;4.60;99.90
39453;DHT22;25154;-33.684;151.102;2023-07-09T21:34:02;4.60;99.90
39453;DHT22;25154;-33.684;151.102;2023-07-09T21:39:14;4.70;99.90
39453;DHT22;25154;-33.684;151.102;2023-07-09T21:44:18;5.00;99.90
39453;DHT22;25154;-33.684;151.102;2023-07-09T21:49:25;5.10;99.90
39453;DHT22;25154;-33.684;151.102;2023-07-09T21:54:28;5.20;99.90
39453;DHT22;25154;-33.684;151.102;2023-07-09T21:59:32;5.30;99.90
39453;DHT22;25154;-33.684;151.102;2023-07-09T22:04:35;5.30;99.90
39453;DHT22;25154;-33.684;151.102;2023-07-09T22:09:38;5.80;99.90
39453;DHT22;25154;-33.684;151.102;2023-07-09T22:14:40;6.00;99.90
39453;DHT22;25154;-33.684;151.102;2023-07-09T22:19:43;6.10;99.90
39453;DHT22;25154;-33.684;151.102;2023-07-09T22:24:47;7.00;99.90
39453;DHT22;25154;-33.684;151.102;2023-07-09T22:29:51;7.30;99.90
39453;DHT22;25154;-33.684;151.102;2023-07-09T22:34:56;7.50;99.90
39453;DHT22;25154;-33.684;151.102;2023-07-09T22:40:10;7.70;99.90
39453;DHT22;25154;-33.684;151.102;2023-07-09T22:45:19;8.50;99.90
39453;DHT22;25154;-33.684;151.102;2023-07-09T22:50:28;9.60;99.90
39453;DHT22;25154;-33.684;151.102;2023-07-09T23:00:47;10.10;99.90
39453;DHT22;25154;-33.684;151.102;2023-07-09T23:05:50;10.20;99.90
39453;DHT22;25154;-33.684;151.102;2023-07-09T23:10:58;10.70;99.90
39453;DHT22;25154;-33.684;151.102;2023-07-09T23:16:05;11.00;99.90
39453;DHT22;25154;-33.684;151.102;2023-07-09T23:21:08;11.00;99.90
39453;DHT22;25154;-33.684;151.102;2023-07-09T23:26:11;11.30;99.90
39453;DHT22;25154;-33.684;151.102;2023-07-09T23:31:29;11.50;99.90
39453;DHT22;25154;-33.684;151.102;2023-07-09T23:36:32;11.70;99.90
39453;DHT22;25154;-33.684;151.102;2023-07-09T23:41:39;11.80;99.90
39453;DHT22;25154;-33.684;151.102;2023-07-09T23:46:44;12.10;99.90
39453;DHT22;25154;-33.684;151.102;2023-07-09T23:51:47;13.10;99.90
39453;DHT22;25154;-33.684;151.102;2023-07-09T23:56:51;12.50;99.90
